sensor_id;sensor_type;location;lat;lon;timestamp;P1;durP1;ratioP1;P2;durP2;ratioP2
9508;SDS011;4792;50.088;8.122;2023-10-13T00:01:47;11.73;;;7.27;;
9508;SDS011;4792;50.088;8.122;2023-10-13T00:04:18;12.47;;;6.00;;
9508;SDS011;4792;50.088;8.122;2023-10-13T00:06:49;6.77;;;5.33;;
9508;SDS011;4792;50.088;8.122;2023-10-13T00:09:18;11.37;;;6.27;;
9508;SDS011;4792;50.088;8.122;2023-10-13T00:11:52;12.37;;;6.60;;
9508;SDS011;4792;50.088;8.122;2023-10-13T00:14:21;10.77;;;5.80;;
9508;SDS011;4792;50.088;8.122;2023-10-13T00:16:57;10.40;;;7.27;;
9508;SDS011;4792;50.088;8.122;2023-10-13T00:19:31;10.43;;;6.57;;
9508;SDS011;4792;50.088;8.122;2023-10-13T00:22:12;14.37;;;8.10;;
9508;SDS011;4792;50.088;8.122;2023-10-13T00:24:43;13.33;;;7.70;;
9508;SDS011;4792;50.088;8.122;2023-10-13T00:27:14;17.57;;;8.90;;
9508;SDS011;4792;50.088;8.122;2023-10-13T00:29:56;12.77;;;8.47;;
9508;SDS011;4792;50.088;8.122;2023-10-13T00:32:48;11.20;;;7.80;;
9508;SDS011;4792;50.088;8.122;2023-10-13T00:35:21;12.57;;;8.07;;
9508;SDS011;4792;50.088;8.122;2023-10-13T00:37:54;12.43;;;7.60;;
9508;SDS011;4792;50.088;8.122;2023-10-13T00:40:23;11.93;;;7.53;;
9508;SDS011;4792;50.088;8.122;2023-10-13T00:43:07;13.47;;;7.30;;
9508;SDS011;4792;50.088;8.122;2023-10-13T00:45:53;9.77;;;6.70;;
9508;SDS011;4792;50.088;8.122;2023-10-13T00:48:23;11.80;;;7.07;;
9508;SDS011;4792;50.088;8.122;2023-10-13T00:50:56;14.33;;;7.37;;
9508;SDS011;4792;50.088;8.122;2023-10-13T00:53:25;12.80;;;6.80;;
9508;SDS011;4792;50.088;8.122;2023-10-13T00:55:52;10.80;;;7.27;;
9508;SDS011;4792;50.088;8.122;2023-10-13T00:58:24;17.30;;;7.73;;
9508;SDS011;4792;50.088;8.122;2023-10-13T01:00:53;14.50;;;6.87;;
9508;SDS011;4792;50.088;8.122;2023-10-13T01:03:44;11.70;;;6.57;;
9508;SDS011;4792;50.088;8.122;2023-10-13T01:06:11;11.70;;;6.33;;
9508;SDS011;4792;50.088;8.122;2023-10-13T01:08:40;11.70;;;7.30;;
9508;SDS011;4792;50.088;8.122;2023-10-13T01:11:10;10.73;;;6.33;;
9508;SDS011;4792;50.088;8.122;2023-10-13T01:13:41;8.77;;;6.00;;
9508;SDS011;4792;50.088;8.122;2023-10-13T01:16:08;20.37;;;9.07;;
9508;SDS011;4792;50.088;8.122;2023-10-13T01:18:40;13.43;;;7.97;;
9508;SDS011;4792;50.088;8.122;2023-10-13T01:21:14;14.90;;;8.60;;
9508;SDS011;4792;50.088;8.122;2023-10-13T01:23:47;15.73;;;7.80;;
9508;SDS011;4792;50.088;8.122;2023-10-13T01:26:14;16.80;;;8.03;;
9508;SDS011;4792;50.088;8.122;2023-10-13T01:28:47;13.23;;;8.13;;
9508;SDS011;4792;50.088;8.122;2023-10-13T01:31:16;14.13;;;9.00;;
9508;SDS011;4792;50.088;8.122;2023-10-13T01:33:56;17.13;;;8.20;;
9508;SDS011;4792;50.088;8.122;2023-10-13T01:36:26;16.60;;;8.33;;
9508;SDS011;4792;50.088;8.122;2023-10-13T01:38:55;10.90;;;7.70;;
9508;SDS011;4792;50.088;8.122;2023-10-13T01:41:21;19.53;;;8.63;;
9508;SDS011;4792;50.088;8.122;2023-10-13T01:43:49;13.33;;;8.53;;
9508;SDS011;4792;50.088;8.122;2023-10-13T01:46:16;17.20;;;8.83;;
9508;SDS011;4792;50.088;8.122;2023-10-13T01:48:46;17.97;;;10.00;;
9508;SDS011;4792;50.088;8.122;2023-10-13T01:51:14;18.43;;;9.60;;
9508;SDS011;4792;50.088;8.122;2023-10-13T01:53:40;20.50;;;9.50;;
9508;SDS011;4792;50.088;8.122;2023-10-13T01:56:10;17.27;;;9.40;;
9508;SDS011;4792;50.088;8.122;2023-10-13T01:58:37;25.13;;;10.87;;
9508;SDS011;4792;50.088;8.122;2023-10-13T02:01:08;16.67;;;8.93;;
9508;SDS011;4792;50.088;8.122;2023-10-13T02:03:36;17.17;;;10.27;;
9508;SDS011;4792;50.088;8.122;2023-10-13T02:06:08;21.00;;;11.63;;
9508;SDS011;4792;50.088;8.122;2023-10-13T02:08:36;13.63;;;9.87;;
9508;SDS011;4792;50.088;8.122;2023-10-13T02:11:10;22.37;;;12.67;;
9508;SDS011;4792;50.088;8.122;2023-10-13T02:13:37;15.83;;;10.07;;
9508;SDS011;4792;50.088;8.122;2023-10-13T02:16:14;15.90;;;9.27;;
9508;SDS011;4792;50.088;8.122;2023-10-13T02:18:47;17.47;;;9.53;;
9508;SDS011;4792;50.088;8.122;2023-10-13T02:21:18;13.60;;;9.27;;
9508;SDS011;4792;50.088;8.122;2023-10-13T02:23:45;14.87;;;9.37;;
9508;SDS011;4792;50.088;8.122;2023-10-13T02:26:28;15.50;;;10.47;;
9508;SDS011;4792;50.088;8.122;2023-10-13T02:28:57;16.57;;;10.73;;
9508;SDS011;4792;50.088;8.122;2023-10-13T02:31:27;19.63;;;10.53;;
9508;SDS011;4792;50.088;8.122;2023-10-13T02:33:54;23.87;;;11.40;;
9508;SDS011;4792;50.088;8.122;2023-10-13T02:36:22;21.63;;;10.93;;
9508;SDS011;4792;50.088;8.122;2023-10-13T02:38:49;15.63;;;10.17;;
9508;SDS011;4792;50.088;8.122;2023-10-13T02:41:18;20.20;;;11.67;;
9508;SDS011;4792;50.088;8.122;2023-10-13T02:43:54;18.87;;;11.60;;
9508;SDS011;4792;50.088;8.122;2023-10-13T02:46:22;20.13;;;11.83;;
9508;SDS011;4792;50.088;8.122;2023-10-13T02:48:51;21.77;;;11.43;;
9508;SDS011;4792;50.088;8.122;2023-10-13T02:51:20;23.50;;;11.10;;
9508;SDS011;4792;50.088;8.122;2023-10-13T02:53:52;15.77;;;10.63;;
9508;SDS011;4792;50.088;8.122;2023-10-13T02:56:19;18.83;;;11.37;;
9508;SDS011;4792;50.088;8.122;2023-10-13T02:58:47;18.20;;;11.47;;
9508;SDS011;4792;50.088;8.122;2023-10-13T03:01:21;20.00;;;11.77;;
9508;SDS011;4792;50.088;8.122;2023-10-13T03:03:49;21.07;;;11.63;;
9508;SDS011;4792;50.088;8.122;2023-10-13T03:06:21;16.03;;;11.43;;
9508;SDS011;4792;50.088;8.122;2023-10-13T03:08:51;19.57;;;11.67;;
9508;SDS011;4792;50.088;8.122;2023-10-13T03:11:19;17.93;;;10.87;;
9508;SDS011;4792;50.088;8.122;2023-10-13T03:13:48;15.27;;;11.13;;
9508;SDS011;4792;50.088;8.122;2023-10-13T03:16:18;25.00;;;12.40;;
9508;SDS011;4792;50.088;8.122;2023-10-13T03:18:48;21.30;;;12.37;;
9508;SDS011;4792;50.088;8.122;2023-10-13T03:21:20;20.60;;;11.30;;
9508;SDS011;4792;50.088;8.122;2023-10-13T03:23:58;25.93;;;12.07;;
9508;SDS011;4792;50.088;8.122;2023-10-13T03:26:31;17.50;;;11.43;;
9508;SDS011;4792;50.088;8.122;2023-10-13T03:29:02;21.70;;;12.13;;
9508;SDS011;4792;50.088;8.122;2023-10-13T03:31:34;20.83;;;10.83;;
9508;SDS011;4792;50.088;8.122;2023-10-13T03:34:06;18.63;;;10.73;;
9508;SDS011;4792;50.088;8.122;2023-10-13T03:36:38;19.87;;;11.03;;
9508;SDS011;4792;50.088;8.122;2023-10-13T03:39:24;19.07;;;11.00;;
9508;SDS011;4792;50.088;8.122;2023-10-13T03:41:56;19.03;;;10.97;;
9508;SDS011;4792;50.088;8.122;2023-10-13T03:44:25;16.93;;;10.47;;
9508;SDS011;4792;50.088;8.122;2023-10-13T03:46:57;21.07;;;10.50;;
9508;SDS011;4792;50.088;8.122;2023-10-13T03:49:36;18.33;;;10.43;;
9508;SDS011;4792;50.088;8.122;2023-10-13T03:52:04;21.63;;;11.23;;
9508;SDS011;4792;50.088;8.122;2023-10-13T03:54:33;17.13;;;10.10;;
9508;SDS011;4792;50.088;8.122;2023-10-13T03:57:01;18.50;;;10.03;;
9508;SDS011;4792;50.088;8.122;2023-10-13T03:59:37;18.40;;;11.27;;
9508;SDS011;4792;50.088;8.122;2023-10-13T04:02:06;20.20;;;11.47;;
9508;SDS011;4792;50.088;8.122;2023-10-13T04:04:42;17.03;;;11.53;;
9508;SDS011;4792;50.088;8.122;2023-10-13T04:07:15;17.53;;;9.57;;
9508;SDS011;4792;50.088;8.122;2023-10-13T04:10:01;22.60;;;10.27;;
9508;SDS011;4792;50.088;8.122;2023-10-13T04:13:06;15.57;;;10.63;;
9508;SDS011;4792;50.088;8.122;2023-10-13T04:16:03;19.47;;;11.10;;
9508;SDS011;4792;50.088;8.122;2023-10-13T04:19:01;18.13;;;10.30;;
9508;SDS011;4792;50.088;8.122;2023-10-13T04:21:37;15.13;;;9.50;;
9508;SDS011;4792;50.088;8.122;2023-10-13T04:24:21;15.03;;;9.40;;
9508;SDS011;4792;50.088;8.122;2023-10-13T04:27:06;18.30;;;10.93;;
9508;SDS011;4792;50.088;8.122;2023-10-13T04:29:56;26.17;;;11.83;;
9508;SDS011;4792;50.088;8.122;2023-10-13T04:32:37;21.57;;;10.87;;
9508;SDS011;4792;50.088;8.122;2023-10-13T04:35:14;17.27;;;10.10;;
9508;SDS011;4792;50.088;8.122;2023-10-13T04:37:48;23.17;;;11.17;;
9508;SDS011;4792;50.088;8.122;2023-10-13T04:40:24;22.20;;;11.77;;
9508;SDS011;4792;50.088;8.122;2023-10-13T04:42:52;19.20;;;9.80;;
9508;SDS011;4792;50.088;8.122;2023-10-13T04:45:24;20.47;;;10.50;;
9508;SDS011;4792;50.088;8.122;2023-10-13T04:48:13;19.00;;;11.13;;
9508;SDS011;4792;50.088;8.122;2023-10-13T04:50:41;20.53;;;10.47;;
9508;SDS011;4792;50.088;8.122;2023-10-13T04:53:13;15.43;;;9.73;;
9508;SDS011;4792;50.088;8.122;2023-10-13T04:55:57;22.90;;;11.57;;
9508;SDS011;4792;50.088;8.122;2023-10-13T04:58:54;18.13;;;10.80;;
9508;SDS011;4792;50.088;8.122;2023-10-13T05:01:39;14.20;;;9.77;;
9508;SDS011;4792;50.088;8.122;2023-10-13T05:04:37;22.50;;;10.63;;
9508;SDS011;4792;50.088;8.122;2023-10-13T05:07:05;15.93;;;10.63;;
9508;SDS011;4792;50.088;8.122;2023-10-13T05:09:52;15.47;;;10.53;;
9508;SDS011;4792;50.088;8.122;2023-10-13T05:12:37;18.50;;;10.83;;
9508;SDS011;4792;50.088;8.122;2023-10-13T05:15:23;22.20;;;11.03;;
9508;SDS011;4792;50.088;8.122;2023-10-13T05:18:08;20.80;;;11.13;;
9508;SDS011;4792;50.088;8.122;2023-10-13T05:20:54;22.20;;;12.47;;
9508;SDS011;4792;50.088;8.122;2023-10-13T05:23:45;23.37;;;11.27;;
9508;SDS011;4792;50.088;8.122;2023-10-13T05:26:32;19.83;;;11.80;;
9508;SDS011;4792;50.088;8.122;2023-10-13T05:29:17;28.03;;;11.93;;
9508;SDS011;4792;50.088;8.122;2023-10-13T05:32:03;20.03;;;10.83;;
9508;SDS011;4792;50.088;8.122;2023-10-13T05:34:48;19.13;;;11.00;;
9508;SDS011;4792;50.088;8.122;2023-10-13T05:37:33;22.03;;;11.70;;
9508;SDS011;4792;50.088;8.122;2023-10-13T05:40:19;17.97;;;10.30;;
9508;SDS011;4792;50.088;8.122;2023-10-13T05:43:05;23.33;;;11.27;;
9508;SDS011;4792;50.088;8.122;2023-10-13T05:45:51;18.07;;;9.97;;
9508;SDS011;4792;50.088;8.122;2023-10-13T05:48:36;17.50;;;10.90;;
9508;SDS011;4792;50.088;8.122;2023-10-13T05:51:30;25.77;;;12.00;;
9508;SDS011;4792;50.088;8.122;2023-10-13T05:54:10;26.13;;;13.37;;
9508;SDS011;4792;50.088;8.122;2023-10-13T05:56:56;22.67;;;12.10;;
9508;SDS011;4792;50.088;8.122;2023-10-13T05:59:43;20.13;;;12.87;;
9508;SDS011;4792;50.088;8.122;2023-10-13T06:02:28;26.23;;;13.73;;
9508;SDS011;4792;50.088;8.122;2023-10-13T06:05:13;31.33;;;15.17;;
9508;SDS011;4792;50.088;8.122;2023-10-13T06:07:59;32.17;;;13.40;;
9508;SDS011;4792;50.088;8.122;2023-10-13T06:10:44;25.97;;;14.00;;
9508;SDS011;4792;50.088;8.122;2023-10-13T06:13:29;24.23;;;12.63;;
9508;SDS011;4792;50.088;8.122;2023-10-13T06:16:17;33.40;;;14.40;;
9508;SDS011;4792;50.088;8.122;2023-10-13T06:19:02;28.50;;;13.67;;
9508;SDS011;4792;50.088;8.122;2023-10-13T06:21:48;25.37;;;12.37;;
9508;SDS011;4792;50.088;8.122;2023-10-13T06:24:33;22.40;;;12.80;;
9508;SDS011;4792;50.088;8.122;2023-10-13T06:27:19;29.83;;;13.60;;
9508;SDS011;4792;50.088;8.122;2023-10-13T06:30:05;23.03;;;12.97;;
9508;SDS011;4792;50.088;8.122;2023-10-13T06:32:34;24.63;;;12.30;;
9508;SDS011;4792;50.088;8.122;2023-10-13T06:35:06;23.80;;;12.90;;
9508;SDS011;4792;50.088;8.122;2023-10-13T06:37:45;23.97;;;13.17;;
9508;SDS011;4792;50.088;8.122;2023-10-13T06:40:13;30.17;;;14.07;;
9508;SDS011;4792;50.088;8.122;2023-10-13T06:42:48;24.00;;;12.30;;
9508;SDS011;4792;50.088;8.122;2023-10-13T06:45:16;21.10;;;11.83;;
9508;SDS011;4792;50.088;8.122;2023-10-13T06:47:45;22.90;;;12.13;;
9508;SDS011;4792;50.088;8.122;2023-10-13T06:50:15;28.27;;;11.47;;
9508;SDS011;4792;50.088;8.122;2023-10-13T06:52:43;26.93;;;11.43;;
9508;SDS011;4792;50.088;8.122;2023-10-13T06:55:10;22.03;;;11.17;;
9508;SDS011;4792;50.088;8.122;2023-10-13T06:57:43;26.13;;;11.03;;
9508;SDS011;4792;50.088;8.122;2023-10-13T07:00:13;19.53;;;9.87;;
9508;SDS011;4792;50.088;8.122;2023-10-13T07:02:54;20.43;;;10.43;;
9508;SDS011;4792;50.088;8.122;2023-10-13T07:05:35;21.10;;;10.03;;
9508;SDS011;4792;50.088;8.122;2023-10-13T07:08:05;20.87;;;10.07;;
9508;SDS011;4792;50.088;8.122;2023-10-13T07:10:33;22.47;;;9.90;;
9508;SDS011;4792;50.088;8.122;2023-10-13T07:13:11;22.93;;;10.13;;
9508;SDS011;4792;50.088;8.122;2023-10-13T07:15:39;17.30;;;9.67;;
9508;SDS011;4792;50.088;8.122;2023-10-13T07:18:13;23.77;;;9.23;;
9508;SDS011;4792;50.088;8.122;2023-10-13T07:20:44;25.13;;;8.40;;
9508;SDS011;4792;50.088;8.122;2023-10-13T07:23:11;19.53;;;8.93;;
9508;SDS011;4792;50.088;8.122;2023-10-13T07:25:51;20.77;;;9.90;;
9508;SDS011;4792;50.088;8.122;2023-10-13T07:28:20;21.13;;;8.73;;
9508;SDS011;4792;50.088;8.122;2023-10-13T07:30:47;17.17;;;8.87;;
9508;SDS011;4792;50.088;8.122;2023-10-13T07:33:38;22.77;;;8.23;;
9508;SDS011;4792;50.088;8.122;2023-10-13T07:36:08;17.17;;;8.50;;
9508;SDS011;4792;50.088;8.122;2023-10-13T07:38:44;13.27;;;7.83;;
9508;SDS011;4792;50.088;8.122;2023-10-13T07:41:31;18.30;;;7.90;;
9508;SDS011;4792;50.088;8.122;2023-10-13T07:44:02;21.03;;;8.50;;
9508;SDS011;4792;50.088;8.122;2023-10-13T07:46:31;17.27;;;7.87;;
9508;SDS011;4792;50.088;8.122;2023-10-13T07:49:03;19.50;;;7.70;;
9508;SDS011;4792;50.088;8.122;2023-10-13T07:51:37;22.40;;;7.90;;
9508;SDS011;4792;50.088;8.122;2023-10-13T07:54:10;15.37;;;7.40;;
9508;SDS011;4792;50.088;8.122;2023-10-13T07:56:41;16.63;;;7.73;;
9508;SDS011;4792;50.088;8.122;2023-10-13T07:59:08;14.97;;;8.00;;
9508;SDS011;4792;50.088;8.122;2023-10-13T08:01:38;14.90;;;7.70;;
9508;SDS011;4792;50.088;8.122;2023-10-13T08:04:10;14.23;;;7.17;;
9508;SDS011;4792;50.088;8.122;2023-10-13T08:06:38;15.90;;;7.03;;
9508;SDS011;4792;50.088;8.122;2023-10-13T08:09:09;14.73;;;7.53;;
9508;SDS011;4792;50.088;8.122;2023-10-13T08:11:55;22.57;;;8.03;;
9508;SDS011;4792;50.088;8.122;2023-10-13T08:14:23;15.30;;;6.97;;
9508;SDS011;4792;50.088;8.122;2023-10-13T08:17:05;12.37;;;7.50;;
9508;SDS011;4792;50.088;8.122;2023-10-13T08:19:36;12.10;;;7.23;;
9508;SDS011;4792;50.088;8.122;2023-10-13T08:22:08;16.47;;;7.50;;
9508;SDS011;4792;50.088;8.122;2023-10-13T08:24:52;13.67;;;7.63;;
9508;SDS011;4792;50.088;8.122;2023-10-13T08:27:22;13.57;;;6.70;;
9508;SDS011;4792;50.088;8.122;2023-10-13T08:30:00;18.50;;;7.00;;
9508;SDS011;4792;50.088;8.122;2023-10-13T08:32:49;15.73;;;6.87;;
9508;SDS011;4792;50.088;8.122;2023-10-13T08:35:25;14.10;;;7.40;;
9508;SDS011;4792;50.088;8.122;2023-10-13T08:38:01;14.57;;;7.60;;
9508;SDS011;4792;50.088;8.122;2023-10-13T08:40:57;17.50;;;8.10;;
9508;SDS011;4792;50.088;8.122;2023-10-13T08:43:43;13.37;;;7.03;;
9508;SDS011;4792;50.088;8.122;2023-10-13T08:46:18;15.00;;;7.60;;
9508;SDS011;4792;50.088;8.122;2023-10-13T08:48:55;12.37;;;7.67;;
9508;SDS011;4792;50.088;8.122;2023-10-13T08:51:48;16.90;;;8.37;;
9508;SDS011;4792;50.088;8.122;2023-10-13T08:54:18;17.53;;;8.20;;
9508;SDS011;4792;50.088;8.122;2023-10-13T08:56:46;29.80;;;14.90;;
9508;SDS011;4792;50.088;8.122;2023-10-13T08:59:21;19.13;;;9.80;;
9508;SDS011;4792;50.088;8.122;2023-10-13T09:01:49;20.50;;;7.27;;
9508;SDS011;4792;50.088;8.122;2023-10-13T09:04:26;21.90;;;9.97;;
9508;SDS011;4792;50.088;8.122;2023-10-13T09:07:01;14.93;;;8.97;;
9508;SDS011;4792;50.088;8.122;2023-10-13T09:09:45;33.37;;;15.20;;
9508;SDS011;4792;50.088;8.122;2023-10-13T09:12:26;16.53;;;7.87;;
9508;SDS011;4792;50.088;8.122;2023-10-13T09:15:06;14.53;;;7.20;;
9508;SDS011;4792;50.088;8.122;2023-10-13T09:17:50;17.60;;;8.40;;
9508;SDS011;4792;50.088;8.122;2023-10-13T09:20:39;28.53;;;13.73;;
9508;SDS011;4792;50.088;8.122;2023-10-13T09:23:13;18.83;;;7.67;;
9508;SDS011;4792;50.088;8.122;2023-10-13T09:25:51;34.00;;;16.43;;
9508;SDS011;4792;50.088;8.122;2023-10-13T09:28:27;23.07;;;11.27;;
9508;SDS011;4792;50.088;8.122;2023-10-13T09:30:55;14.63;;;7.80;;
9508;SDS011;4792;50.088;8.122;2023-10-13T09:33:24;14.83;;;8.70;;
9508;SDS011;4792;50.088;8.122;2023-10-13T09:35:55;11.43;;;6.57;;
9508;SDS011;4792;50.088;8.122;2023-10-13T09:38:28;14.40;;;7.37;;
9508;SDS011;4792;50.088;8.122;2023-10-13T09:40:55;12.23;;;6.97;;
9508;SDS011;4792;50.088;8.122;2023-10-13T09:43:28;11.67;;;7.77;;
9508;SDS011;4792;50.088;8.122;2023-10-13T09:45:56;19.13;;;12.23;;
9508;SDS011;4792;50.088;8.122;2023-10-13T09:48:33;17.70;;;9.63;;
9508;SDS011;4792;50.088;8.122;2023-10-13T09:51:01;13.67;;;8.57;;
9508;SDS011;4792;50.088;8.122;2023-10-13T09:53:32;18.83;;;10.20;;
9508;SDS011;4792;50.088;8.122;2023-10-13T09:56:02;16.30;;;7.27;;
9508;SDS011;4792;50.088;8.122;2023-10-13T09:58:46;17.60;;;8.90;;
9508;SDS011;4792;50.088;8.122;2023-10-13T10:01:19;14.37;;;7.70;;
9508;SDS011;4792;50.088;8.122;2023-10-13T10:04:06;13.07;;;8.17;;
9508;SDS011;4792;50.088;8.122;2023-10-13T10:06:35;21.60;;;14.40;;
9508;SDS011;4792;50.088;8.122;2023-10-13T10:09:12;15.37;;;9.10;;
9508;SDS011;4792;50.088;8.122;2023-10-13T10:14:41;15.60;;;12.17;;
9508;SDS011;4792;50.088;8.122;2023-10-13T10:17:22;11.48;;;7.32;;
9508;SDS011;4792;50.088;8.122;2023-10-13T10:19:50;19.43;;;10.83;;
9508;SDS011;4792;50.088;8.122;2023-10-13T10:22:24;13.50;;;8.90;;
9508;SDS011;4792;50.088;8.122;2023-10-13T10:24:57;14.10;;;7.57;;
9508;SDS011;4792;50.088;8.122;2023-10-13T10:27:28;15.00;;;7.57;;
9508;SDS011;4792;50.088;8.122;2023-10-13T10:29:56;9.57;;;7.43;;
9508;SDS011;4792;50.088;8.122;2023-10-13T10:32:32;14.25;;;8.50;;
9508;SDS011;4792;50.088;8.122;2023-10-13T10:35:05;15.25;;;8.13;;
9508;SDS011;4792;50.088;8.122;2023-10-13T10:37:35;12.15;;;7.95;;
9508;SDS011;4792;50.088;8.122;2023-10-13T10:40:08;12.05;;;7.32;;
9508;SDS011;4792;50.088;8.122;2023-10-13T10:42:49;13.55;;;7.47;;
9508;SDS011;4792;50.088;8.122;2023-10-13T10:45:18;11.27;;;7.82;;
9508;SDS011;4792;50.088;8.122;2023-10-13T10:47:49;9.05;;;7.45;;
9508;SDS011;4792;50.088;8.122;2023-10-13T10:50:25;12.68;;;6.90;;
9508;SDS011;4792;50.088;8.122;2023-10-13T10:53:03;12.70;;;8.30;;
9508;SDS011;4792;50.088;8.122;2023-10-13T10:55:37;12.45;;;6.88;;
9508;SDS011;4792;50.088;8.122;2023-10-13T10:58:04;16.20;;;7.78;;
9508;SDS011;4792;50.088;8.122;2023-10-13T11:00:33;13.80;;;7.45;;
9508;SDS011;4792;50.088;8.122;2023-10-13T11:03:12;11.57;;;7.68;;
9508;SDS011;4792;50.088;8.122;2023-10-13T11:05:43;12.05;;;6.97;;
9508;SDS011;4792;50.088;8.122;2023-10-13T11:08:21;16.27;;;7.80;;
9508;SDS011;4792;50.088;8.122;2023-10-13T11:10:59;12.75;;;6.93;;
9508;SDS011;4792;50.088;8.122;2023-10-13T11:13:38;12.43;;;7.25;;
9508;SDS011;4792;50.088;8.122;2023-10-13T11:16:19;12.90;;;8.57;;
9508;SDS011;4792;50.088;8.122;2023-10-13T11:18:59;9.13;;;6.97;;
9508;SDS011;4792;50.088;8.122;2023-10-13T11:21:28;10.43;;;7.18;;
9508;SDS011;4792;50.088;8.122;2023-10-13T11:23:57;10.93;;;6.78;;
9508;SDS011;4792;50.088;8.122;2023-10-13T11:26:36;11.60;;;6.90;;
9508;SDS011;4792;50.088;8.122;2023-10-13T11:29:14;11.32;;;7.57;;
9508;SDS011;4792;50.088;8.122;2023-10-13T11:31:45;10.65;;;7.38;;
9508;SDS011;4792;50.088;8.122;2023-10-13T11:34:16;12.65;;;7.30;;
9508;SDS011;4792;50.088;8.122;2023-10-13T11:36:44;8.35;;;6.40;;
9508;SDS011;4792;50.088;8.122;2023-10-13T11:39:12;10.75;;;7.32;;
9508;SDS011;4792;50.088;8.122;2023-10-13T11:41:49;14.98;;;7.78;;
9508;SDS011;4792;50.088;8.122;2023-10-13T11:44:21;15.82;;;8.18;;
9508;SDS011;4792;50.088;8.122;2023-10-13T11:46:57;14.77;;;6.68;;
9508;SDS011;4792;50.088;8.122;2023-10-13T11:49:43;8.32;;;6.80;;
9508;SDS011;4792;50.088;8.122;2023-10-13T11:52:11;11.90;;;6.65;;
9508;SDS011;4792;50.088;8.122;2023-10-13T11:54:44;11.82;;;7.10;;
9508;SDS011;4792;50.088;8.122;2023-10-13T11:57:15;11.98;;;6.72;;
9508;SDS011;4792;50.088;8.122;2023-10-13T11:59:46;7.95;;;6.18;;
9508;SDS011;4792;50.088;8.122;2023-10-13T12:02:42;6.72;;;5.97;;
9508;SDS011;4792;50.088;8.122;2023-10-13T12:05:36;11.57;;;6.65;;
9508;SDS011;4792;50.088;8.122;2023-10-13T12:08:32;9.95;;;6.30;;
9508;SDS011;4792;50.088;8.122;2023-10-13T12:11:04;9.63;;;6.03;;
9508;SDS011;4792;50.088;8.122;2023-10-13T12:13:47;9.65;;;5.75;;
9508;SDS011;4792;50.088;8.122;2023-10-13T12:16:15;11.00;;;6.22;;
9508;SDS011;4792;50.088;8.122;2023-10-13T12:18:45;10.90;;;6.28;;
9508;SDS011;4792;50.088;8.122;2023-10-13T12:21:19;11.93;;;6.50;;
9508;SDS011;4792;50.088;8.122;2023-10-13T12:23:47;12.45;;;6.50;;
9508;SDS011;4792;50.088;8.122;2023-10-13T12:26:17;7.97;;;5.95;;
9508;SDS011;4792;50.088;8.122;2023-10-13T12:28:47;11.55;;;6.10;;
9508;SDS011;4792;50.088;8.122;2023-10-13T12:31:18;12.93;;;6.53;;
9508;SDS011;4792;50.088;8.122;2023-10-13T12:33:53;7.18;;;6.03;;
9508;SDS011;4792;50.088;8.122;2023-10-13T12:36:24;8.25;;;5.65;;
9508;SDS011;4792;50.088;8.122;2023-10-13T12:39:07;10.77;;;6.35;;
9508;SDS011;4792;50.088;8.122;2023-10-13T12:41:52;11.18;;;6.10;;
9508;SDS011;4792;50.088;8.122;2023-10-13T12:44:39;9.43;;;6.25;;
9508;SDS011;4792;50.088;8.122;2023-10-13T12:47:24;10.48;;;6.22;;
9508;SDS011;4792;50.088;8.122;2023-10-13T12:50:10;13.75;;;6.20;;
9508;SDS011;4792;50.088;8.122;2023-10-13T12:53:00;8.80;;;5.53;;
9508;SDS011;4792;50.088;8.122;2023-10-13T12:55:28;12.32;;;5.68;;
9508;SDS011;4792;50.088;8.122;2023-10-13T12:57:56;8.98;;;6.00;;
9508;SDS011;4792;50.088;8.122;2023-10-13T13:00:25;9.68;;;6.13;;
9508;SDS011;4792;50.088;8.122;2023-10-13T13:02:59;8.70;;;5.70;;
9508;SDS011;4792;50.088;8.122;2023-10-13T13:05:37;11.15;;;6.25;;
9508;SDS011;4792;50.088;8.122;2023-10-13T13:08:10;7.63;;;5.85;;
9508;SDS011;4792;50.088;8.122;2023-10-13T13:10:48;8.30;;;6.00;;
9508;SDS011;4792;50.088;8.122;2023-10-13T13:13:16;15.52;;;6.10;;
9508;SDS011;4792;50.088;8.122;2023-10-13T13:15:52;14.93;;;6.28;;
9508;SDS011;4792;50.088;8.122;2023-10-13T13:18:20;9.45;;;5.68;;
9508;SDS011;4792;50.088;8.122;2023-10-13T13:20:47;9.73;;;5.43;;
9508;SDS011;4792;50.088;8.122;2023-10-13T13:23:20;8.77;;;5.30;;
9508;SDS011;4792;50.088;8.122;2023-10-13T13:25:52;8.52;;;6.20;;
9508;SDS011;4792;50.088;8.122;2023-10-13T13:28:19;13.98;;;5.70;;
9508;SDS011;4792;50.088;8.122;2023-10-13T13:30:52;10.35;;;5.18;;
9508;SDS011;4792;50.088;8.122;2023-10-13T13:33:21;11.15;;;4.88;;
9508;SDS011;4792;50.088;8.122;2023-10-13T13:35:53;9.57;;;5.63;;
9508;SDS011;4792;50.088;8.122;2023-10-13T13:38:21;13.05;;;5.40;;
9508;SDS011;4792;50.088;8.122;2023-10-13T13:40:53;9.48;;;5.68;;
9508;SDS011;4792;50.088;8.122;2023-10-13T13:43:21;12.38;;;5.35;;
9508;SDS011;4792;50.088;8.122;2023-10-13T13:46:19;7.95;;;4.63;;
9508;SDS011;4792;50.088;8.122;2023-10-13T13:48:51;9.25;;;5.15;;
9508;SDS011;4792;50.088;8.122;2023-10-13T13:51:24;13.18;;;5.03;;
9508;SDS011;4792;50.088;8.122;2023-10-13T13:53:57;8.45;;;5.03;;
9508;SDS011;4792;50.088;8.122;2023-10-13T13:56:29;16.30;;;5.82;;
9508;SDS011;4792;50.088;8.122;2023-10-13T13:58:57;16.52;;;5.20;;
9508;SDS011;4792;50.088;8.122;2023-10-13T14:01:35;11.05;;;5.30;;
9508;SDS011;4792;50.088;8.122;2023-10-13T14:04:04;10.77;;;5.20;;
9508;SDS011;4792;50.088;8.122;2023-10-13T14:06:33;15.50;;;5.30;;
9508;SDS011;4792;50.088;8.122;2023-10-13T14:09:01;16.35;;;5.15;;
9508;SDS011;4792;50.088;8.122;2023-10-13T14:11:32;6.68;;;4.43;;
9508;SDS011;4792;50.088;8.122;2023-10-13T14:14:19;12.43;;;4.75;;
9508;SDS011;4792;50.088;8.122;2023-10-13T14:17:01;10.88;;;5.70;;
9508;SDS011;4792;50.088;8.122;2023-10-13T14:19:34;11.50;;;5.43;;
9508;SDS011;4792;50.088;8.122;2023-10-13T14:22:07;8.73;;;5.03;;
9508;SDS011;4792;50.088;8.122;2023-10-13T14:24:38;9.18;;;5.13;;
9508;SDS011;4792;50.088;8.122;2023-10-13T14:27:13;5.85;;;4.47;;
9508;SDS011;4792;50.088;8.122;2023-10-13T14:29:44;7.80;;;4.75;;
9508;SDS011;4792;50.088;8.122;2023-10-13T14:32:14;9.60;;;5.28;;
9508;SDS011;4792;50.088;8.122;2023-10-13T14:34:43;8.48;;;5.18;;
9508;SDS011;4792;50.088;8.122;2023-10-13T14:37:12;9.77;;;4.90;;
9508;SDS011;4792;50.088;8.122;2023-10-13T14:39:40;11.13;;;5.70;;
9508;SDS011;4792;50.088;8.122;2023-10-13T14:42:07;8.70;;;4.75;;
9508;SDS011;4792;50.088;8.122;2023-10-13T14:44:35;8.57;;;5.25;;
9508;SDS011;4792;50.088;8.122;2023-10-13T14:47:03;8.63;;;4.93;;
9508;SDS011;4792;50.088;8.122;2023-10-13T14:49:36;8.38;;;5.30;;
9508;SDS011;4792;50.088;8.122;2023-10-13T14:52:04;11.07;;;5.05;;
9508;SDS011;4792;50.088;8.122;2023-10-13T14:54:32;5.78;;;4.20;;
9508;SDS011;4792;50.088;8.122;2023-10-13T14:57:02;9.95;;;5.38;;
9508;SDS011;4792;50.088;8.122;2023-10-13T14:59:30;10.80;;;5.03;;
9508;SDS011;4792;50.088;8.122;2023-10-13T15:02:04;12.82;;;5.15;;
9508;SDS011;4792;50.088;8.122;2023-10-13T15:04:32;9.65;;;5.35;;
9508;SDS011;4792;50.088;8.122;2023-10-13T15:07:01;10.85;;;4.90;;
9508;SDS011;4792;50.088;8.122;2023-10-13T15:09:29;10.07;;;4.72;;
9508;SDS011;4792;50.088;8.122;2023-10-13T15:11:57;7.95;;;4.80;;
9508;SDS011;4792;50.088;8.122;2023-10-13T15:14:25;10.57;;;4.63;;
9508;SDS011;4792;50.088;8.122;2023-10-13T15:16:53;10.32;;;5.10;;
9508;SDS011;4792;50.088;8.122;2023-10-13T15:19:21;8.85;;;4.90;;
9508;SDS011;4792;50.088;8.122;2023-10-13T15:21:49;10.13;;;5.22;;
9508;SDS011;4792;50.088;8.122;2023-10-13T15:24:20;8.38;;;4.57;;
9508;SDS011;4792;50.088;8.122;2023-10-13T15:26:56;9.55;;;4.68;;
9508;SDS011;4792;50.088;8.122;2023-10-13T15:29:29;10.93;;;5.00;;
9508;SDS011;4792;50.088;8.122;2023-10-13T15:32:02;13.00;;;4.55;;
9508;SDS011;4792;50.088;8.122;2023-10-13T15:34:47;9.20;;;5.00;;
9508;SDS011;4792;50.088;8.122;2023-10-13T15:37:15;9.45;;;4.93;;
9508;SDS011;4792;50.088;8.122;2023-10-13T15:39:44;11.55;;;4.85;;
9508;SDS011;4792;50.088;8.122;2023-10-13T15:42:12;12.95;;;4.88;;
9508;SDS011;4792;50.088;8.122;2023-10-13T15:44:40;10.32;;;4.20;;
9508;SDS011;4792;50.088;8.122;2023-10-13T15:47:09;11.88;;;4.45;;